createdAt,value
2022-11-27T00:01:31.358Z,37.45
2022-11-27T00:03:59.013Z,42.35
2022-11-27T00:06:27.951Z,39.35
2022-11-27T00:08:59.919Z,41.45
2022-11-27T00:11:29.268Z,48.05
2022-11-27T00:13:56.799Z,53.55
2022-11-27T00:16:24.885Z,57.22
2022-11-27T00:18:52.942Z,52.35
2022-11-27T00:21:24.041Z,46.65
2022-11-27T00:23:55.401Z,46.05
2022-11-27T00:26:23.176Z,50.85
2022-11-27T00:28:51.064Z,47.88
2022-11-27T00:31:28.571Z,47.65
2022-11-27T00:33:59.153Z,48.13
2022-11-27T00:36:31.596Z,53.38
2022-11-27T00:38:59.209Z,57.38
2022-11-27T00:41:29.023Z,49.40
2022-11-27T00:43:56.882Z,49.90
2022-11-27T00:46:29.078Z,49.33
2022-11-27T00:48:58.255Z,45.85
2022-11-27T00:51:26.464Z,53.42
2022-11-27T00:53:53.897Z,49.03
2022-11-27T00:56:24.274Z,49.70
2022-11-27T00:58:52.129Z,49.97
2022-11-27T01:01:25.054Z,56.37
2022-11-27T01:03:52.734Z,47.28
2022-11-27T01:06:20.646Z,55.10
2022-11-27T01:08:48.184Z,57.85
2022-11-27T01:11:21.203Z,58.58
2022-11-27T01:13:48.996Z,61.35
2022-11-27T01:16:20.231Z,55.03
2022-11-27T01:18:49.246Z,54.40
2022-11-27T01:21:20.717Z,60.38
2022-11-27T01:23:49.554Z,54.92
2022-11-27T01:26:18.071Z,54.13
2022-11-27T01:28:45.762Z,57.20
2022-11-27T01:31:18.827Z,59.70
2022-11-27T01:33:46.946Z,60.28
2022-11-27T01:36:15.637Z,56.72
2022-11-27T01:38:43.164Z,58.35
2022-11-27T01:41:39.892Z,61.58
2022-11-27T01:44:25.350Z,53.08
2022-11-27T01:46:55.766Z,56.03
2022-11-27T01:49:42.769Z,55.38
2022-11-27T01:52:16.896Z,56.33
2022-11-27T01:54:54.936Z,55.17
2022-11-27T01:57:30.363Z,51.55
2022-11-27T01:59:59.329Z,55.22
2022-11-27T02:02:27.424Z,57.95
2022-11-27T02:04:58.754Z,55.22
2022-11-27T02:07:26.197Z,51.17
2022-11-27T02:09:53.656Z,56.45
2022-11-27T02:12:27.284Z,50.25
2022-11-27T02:15:01.576Z,50.15
2022-11-27T02:17:47.663Z,49.58
2022-11-27T02:20:33.206Z,52.62
2022-11-27T02:23:22.077Z,51.45
2022-11-27T02:26:17.922Z,50.10
2022-11-27T02:29:12.914Z,55.88
2022-11-27T02:31:44.684Z,55.08
2022-11-27T02:34:35.784Z,58.80
2022-11-27T02:37:18.309Z,66.45
2022-11-27T02:40:18.106Z,57.30
2022-11-27T02:43:24.420Z,61.20
2022-11-27T02:45:52.425Z,67.93
2022-11-27T02:48:24.224Z,80.97
2022-11-27T02:50:52.658Z,77.60
2022-11-27T02:53:37.931Z,76.70
2022-11-27T02:56:08.709Z,81.28
2022-11-27T02:58:36.503Z,67.97
2022-11-27T03:01:05.939Z,65.68
2022-11-27T03:03:36.763Z,73.10
2022-11-27T03:06:09.696Z,66.28
2022-11-27T03:08:38.866Z,79.32
2022-11-27T03:11:09.941Z,81.00
2022-11-27T03:13:48.907Z,80.85
2022-11-27T03:16:25.264Z,78.62
2022-11-27T03:18:59.370Z,79.25
2022-11-27T03:21:34.950Z,74.65
2022-11-27T03:24:02.722Z,76.43
2022-11-27T03:26:30.768Z,78.68
2022-11-27T03:28:59.966Z,81.00
2022-11-27T03:31:28.738Z,114.20
2022-11-27T03:33:56.753Z,102.50
2022-11-27T03:36:24.094Z,111.20
2022-11-27T03:38:54.156Z,91.53
2022-11-27T03:41:55.219Z,81.20
2022-11-27T03:44:35.803Z,71.35
2022-11-27T03:47:06.331Z,67.20
2022-11-27T03:49:43.001Z,76.53
2022-11-27T03:52:25.008Z,81.72
2022-11-27T03:55:01.521Z,75.25
2022-11-27T03:57:34.140Z,76.37
2022-11-27T04:00:04.867Z,76.00
2022-11-27T04:03:00.911Z,70.70
2022-11-27T04:05:28.511Z,84.28
2022-11-27T04:07:56.812Z,96.63
2022-11-27T04:10:24.210Z,90.90
2022-11-27T04:12:51.819Z,81.12
2022-11-27T04:15:19.144Z,82.93
2022-11-27T04:17:46.473Z,84.78
2022-11-27T04:20:14.628Z,77.32
2022-11-27T04:22:43.153Z,93.07
2022-11-27T04:25:10.537Z,83.32
2022-11-27T04:27:38.307Z,87.32
2022-11-27T04:30:06.157Z,104.85
2022-11-27T04:32:33.552Z,85.82
2022-11-27T04:35:01.334Z,106.10
2022-11-27T04:37:28.766Z,81.53
2022-11-27T04:39:56.080Z,80.80
2022-11-27T04:42:23.693Z,86.22
2022-11-27T04:44:52.552Z,104.65
2022-11-27T04:47:19.978Z,112.55
2022-11-27T04:49:47.560Z,96.35
2022-11-27T04:52:16.941Z,115.90
2022-11-27T04:54:44.304Z,126.05
2022-11-27T04:57:11.998Z,115.80
2022-11-27T04:59:39.413Z,97.22
2022-11-27T05:02:06.783Z,151.80
2022-11-27T05:04:34.460Z,103.20
2022-11-27T05:07:01.810Z,76.20
2022-11-27T05:09:29.183Z,101.07
2022-11-27T05:11:56.802Z,122.97
2022-11-27T05:14:29.181Z,78.90
2022-11-27T05:16:58.719Z,94.43
2022-11-27T05:19:28.699Z,92.25
2022-11-27T05:21:56.441Z,107.95
2022-11-27T05:24:26.347Z,119.65
2022-11-27T05:26:54.529Z,102.93
2022-11-27T05:29:23.341Z,76.20
2022-11-27T05:31:50.972Z,66.45
2022-11-27T05:34:18.727Z,64.25
2022-11-27T05:36:46.536Z,69.25
2022-11-27T05:39:14.615Z,81.37
2022-11-27T05:41:43.186Z,69.97
2022-11-27T05:44:14.667Z,79.95
2022-11-27T05:46:45.217Z,51.37
2022-11-27T05:49:14.136Z,52.75
2022-11-27T05:51:44.182Z,47.40
2022-11-27T05:54:13.834Z,42.25
2022-11-27T05:56:41.147Z,50.20
2022-11-27T05:59:10.211Z,37.38
2022-11-27T06:01:37.621Z,43.97
2022-11-27T06:04:05.441Z,41.37
2022-11-27T06:06:32.779Z,34.47
2022-11-27T06:09:00.582Z,33.63
2022-11-27T06:11:28.165Z,35.42
2022-11-27T06:13:55.508Z,30.30
2022-11-27T06:16:24.071Z,38.28
2022-11-27T06:18:53.178Z,33.28
2022-11-27T06:21:21.750Z,35.85
2022-11-27T06:23:49.228Z,36.80
2022-11-27T06:26:19.375Z,38.22
2022-11-27T06:28:47.593Z,39.42
2022-11-27T06:31:18.497Z,50.22
2022-11-27T06:33:47.317Z,57.40
2022-11-27T06:36:15.166Z,45.88
2022-11-27T06:38:42.962Z,46.40
2022-11-27T06:41:13.705Z,45.58
2022-11-27T06:43:41.175Z,37.20
2022-11-27T06:46:12.040Z,39.60
2022-11-27T06:48:39.681Z,39.30
2022-11-27T06:51:07.785Z,43.80
2022-11-27T06:53:36.902Z,39.78
2022-11-27T06:56:06.021Z,38.85
2022-11-27T06:58:33.380Z,39.60
2022-11-27T07:01:02.314Z,41.00
2022-11-27T07:03:30.236Z,43.30
2022-11-27T07:06:03.238Z,41.40
2022-11-27T07:08:31.222Z,38.33
2022-11-27T07:11:03.118Z,35.08
2022-11-27T07:13:31.381Z,38.25
2022-11-27T07:16:06.927Z,36.38
2022-11-27T07:18:45.692Z,36.92
2022-11-27T07:21:13.574Z,41.25
2022-11-27T07:23:41.182Z,39.92
2022-11-27T07:26:11.011Z,34.63
2022-11-27T07:28:38.618Z,44.88
2022-11-27T07:31:06.645Z,44.22
2022-11-27T07:33:34.044Z,47.53
2022-11-27T07:36:05.134Z,42.80
2022-11-27T07:38:33.029Z,46.50
2022-11-27T07:41:01.621Z,46.25
2022-11-27T07:43:29.548Z,42.35
2022-11-27T07:45:57.213Z,41.50
2022-11-27T07:48:25.031Z,42.67
2022-11-27T07:50:52.369Z,37.33
2022-11-27T07:53:20.075Z,39.20
2022-11-27T07:55:47.529Z,37.38
2022-11-27T07:58:14.875Z,40.10
2022-11-27T08:00:42.715Z,49.47
2022-11-27T08:03:10.607Z,74.95
2022-11-27T08:05:38.151Z,102.55
2022-11-27T08:08:05.611Z,85.50
2022-11-27T08:10:37.219Z,85.32
2022-11-27T08:13:05.535Z,64.97
2022-11-27T08:15:33.358Z,62.55
2022-11-27T08:18:00.909Z,51.90
2022-11-27T08:20:28.478Z,47.83
2022-11-27T08:23:02.328Z,47.22
2022-11-27T08:25:30.795Z,46.03
2022-11-27T08:27:58.397Z,46.42
2022-11-27T08:30:25.858Z,40.15
2022-11-27T08:32:53.270Z,43.47
2022-11-27T08:35:22.543Z,125.18
2022-11-27T08:37:49.996Z,52.75
2022-11-27T08:40:17.295Z,40.53
2022-11-27T08:42:44.876Z,38.17
2022-11-27T08:45:12.247Z,37.13
2022-11-27T08:47:39.589Z,37.55
2022-11-27T08:50:07.913Z,45.03
2022-11-27T08:52:35.242Z,42.15
2022-11-27T08:55:02.646Z,39.25
2022-11-27T08:57:30.247Z,42.22
2022-11-27T08:59:57.561Z,46.10
2022-11-27T09:02:24.884Z,44.05
2022-11-27T09:04:53.455Z,40.80
2022-11-27T09:07:20.981Z,36.47
2022-11-27T09:09:48.680Z,35.20
2022-11-27T09:12:16.317Z,59.55
2022-11-27T09:14:43.778Z,58.78
2022-11-27T09:17:11.188Z,40.78
2022-11-27T09:19:38.766Z,62.65
2022-11-27T09:22:06.099Z,45.38
2022-11-27T09:24:33.455Z,35.00
2022-11-27T09:27:01.043Z,31.08
2022-11-27T09:29:28.396Z,32.70
2022-11-27T09:31:55.768Z,31.98
2022-11-27T09:34:23.370Z,27.98
2022-11-27T09:36:50.732Z,37.33
2022-11-27T09:39:19.607Z,32.42
2022-11-27T09:41:53.591Z,32.92
2022-11-27T09:44:40.693Z,33.33
2022-11-27T09:47:27.168Z,33.92
2022-11-27T09:50:37.199Z,40.85
2022-11-27T09:53:17.836Z,28.80
2022-11-27T09:55:48.736Z,28.92
2022-11-27T09:58:19.180Z,33.83
2022-11-27T10:00:47.624Z,30.50
2022-11-27T10:03:18.840Z,35.22
2022-11-27T10:13:59.564Z,45.15
2022-11-27T10:16:44.757Z,45.05
2022-11-27T10:19:33.783Z,49.25
2022-11-27T10:22:19.683Z,38.20
2022-11-27T10:25:18.102Z,42.70
2022-11-27T10:27:58.471Z,33.35
2022-11-27T10:30:27.200Z,167.75
2022-11-27T10:32:56.565Z,74.50
2022-11-27T10:35:29.692Z,35.60
2022-11-27T10:38:08.520Z,37.25
2022-11-27T10:40:42.992Z,40.55
2022-11-27T10:43:14.907Z,36.35
2022-11-27T10:46:05.120Z,34.63
2022-11-27T10:48:33.306Z,36.10
2022-11-27T10:51:00.856Z,38.92
2022-11-27T10:53:34.159Z,36.33
2022-11-27T10:56:10.468Z,41.88
2022-11-27T10:58:56.252Z,40.05
2022-11-27T11:01:25.673Z,36.53
2022-11-27T11:04:31.387Z,38.65
2022-11-27T11:06:55.104Z,55.80
2022-11-27T11:09:32.845Z,69.03
2022-11-27T11:12:18.481Z,51.88
2022-11-27T11:14:54.685Z,51.20
2022-11-27T11:17:26.295Z,48.58
2022-11-27T11:19:53.689Z,54.58
2022-11-27T11:22:21.328Z,48.55
2022-11-27T11:24:52.885Z,53.35
2022-11-27T11:27:23.531Z,52.40
2022-11-27T11:29:53.470Z,51.37
2022-11-27T11:32:20.698Z,51.08
2022-11-27T11:35:00.822Z,48.60
2022-11-27T11:37:34.074Z,49.97
2022-11-27T11:40:01.288Z,52.92
2022-11-27T11:42:31.832Z,58.80
2022-11-27T11:45:11.210Z,58.47
2022-11-27T11:47:47.003Z,59.88
2022-11-27T11:50:28.441Z,56.67
2022-11-27T11:53:02.795Z,68.47
2022-11-27T11:55:42.593Z,54.92
2022-11-27T11:58:37.688Z,52.00
2022-11-27T12:01:33.331Z,61.88
2022-11-27T12:04:40.665Z,62.47
2022-11-27T12:07:25.134Z,52.92
2022-11-27T12:09:58.471Z,56.95
2022-11-27T12:12:47.385Z,58.05
2022-11-27T12:15:28.526Z,80.10
2022-11-27T12:18:03.240Z,71.57
2022-11-27T12:20:46.476Z,63.38
2022-11-27T12:23:28.912Z,56.28
2022-11-27T12:26:17.970Z,55.25
2022-11-27T12:29:02.364Z,58.13
2022-11-27T12:31:52.390Z,61.42
2022-11-27T12:34:28.721Z,56.17
2022-11-27T12:37:09.881Z,54.75
2022-11-27T12:39:54.849Z,55.35
2022-11-27T12:42:47.063Z,53.47
2022-11-27T12:45:20.287Z,63.20
2022-11-27T12:48:01.456Z,63.80
2022-11-27T12:51:06.766Z,61.90
2022-11-27T12:53:48.505Z,59.92
2022-11-27T12:56:22.404Z,53.10
2022-11-27T12:59:08.750Z,56.55
2022-11-27T13:02:27.650Z,50.53
2022-11-27T13:05:02.682Z,59.42
2022-11-27T13:07:44.739Z,54.72
2022-11-27T13:10:13.984Z,50.58
2022-11-27T13:13:02.498Z,46.67
2022-11-27T13:15:38.901Z,43.63
2022-11-27T13:18:25.581Z,51.55
2022-11-27T13:20:53.788Z,49.33
2022-11-27T13:23:21.344Z,48.78
2022-11-27T13:25:55.056Z,42.80
2022-11-27T13:28:41.241Z,41.03
2022-11-27T13:31:09.771Z,42.47
2022-11-27T13:33:42.904Z,41.95
2022-11-27T13:36:23.087Z,41.33
2022-11-27T13:38:58.643Z,44.28
2022-11-27T13:41:33.556Z,39.83
2022-11-27T13:44:01.803Z,40.25
2022-11-27T13:46:30.936Z,40.08
2022-11-27T13:49:02.319Z,38.25
2022-11-27T13:51:32.484Z,43.35
2022-11-27T13:54:13.041Z,40.97
2022-11-27T13:56:41.133Z,45.25
2022-11-27T13:59:20.613Z,41.90
2022-11-27T14:01:59.383Z,46.65
2022-11-27T14:04:28.450Z,49.03
2022-11-27T14:07:00.481Z,47.33
2022-11-27T14:09:41.532Z,52.88
2022-11-27T14:12:27.185Z,52.53
2022-11-27T14:15:18.363Z,49.08
2022-11-27T14:17:47.984Z,46.97
2022-11-27T14:20:18.747Z,51.63
2022-11-27T17:43:44.047Z,64.95
2022-11-27T17:46:17.796Z,59.88
2022-11-27T17:48:45.830Z,60.47
2022-11-27T17:51:14.181Z,48.55
2022-11-27T17:53:43.161Z,47.78
2022-11-27T17:56:14.170Z,48.75
2022-11-27T17:58:42.966Z,53.00
2022-11-27T18:01:17.047Z,46.50
2022-11-27T18:06:16.621Z,45.05
2022-11-27T18:08:45.449Z,38.85
2022-11-27T18:11:20.523Z,38.45
2022-11-27T18:13:49.596Z,41.60
2022-11-27T18:16:29.155Z,42.20
2022-11-27T18:18:58.590Z,43.47
2022-11-27T18:21:28.944Z,41.60
2022-11-27T18:29:36.901Z,41.00
2022-11-27T18:32:05.625Z,38.42
2022-11-27T18:34:33.595Z,40.65
2022-11-27T18:37:01.624Z,37.22
2022-11-27T18:39:30.247Z,32.90
2022-11-27T18:41:58.872Z,37.78
2022-11-27T18:44:27.032Z,36.38
2022-11-27T18:46:57.603Z,36.15
2022-11-27T18:49:26.521Z,35.70
2022-11-27T18:51:54.793Z,35.38
2022-11-27T18:54:23.008Z,32.78
2022-11-27T18:56:50.899Z,34.10
2022-11-27T18:59:19.206Z,34.42
2022-11-27T19:01:47.518Z,30.90
2022-11-27T19:04:16.380Z,29.98
2022-11-27T19:06:45.153Z,29.58
2022-11-27T19:09:14.838Z,28.12
2022-11-27T19:11:45.031Z,28.87
2022-11-27T19:14:13.496Z,31.92
2022-11-27T19:16:46.750Z,33.53
2022-11-27T19:19:53.864Z,30.53
2022-11-27T19:22:10.565Z,31.83
2022-11-27T19:24:42.804Z,26.90
2022-11-27T19:27:10.617Z,29.52
2022-11-27T19:29:39.588Z,31.58
2022-11-27T19:32:08.475Z,28.27
2022-11-27T19:34:36.773Z,46.63
2022-11-27T19:37:05.069Z,39.97
2022-11-27T19:39:32.703Z,49.78
2022-11-27T19:42:01.093Z,32.13
2022-11-27T19:44:29.738Z,40.28
2022-11-27T19:46:58.976Z,36.13
2022-11-27T19:49:27.299Z,34.30
2022-11-27T19:51:55.752Z,34.92
2022-11-27T19:54:24.462Z,41.03
2022-11-27T19:56:53.432Z,31.98
2022-11-27T19:59:25.792Z,33.97
2022-11-27T20:01:54.419Z,30.80
2022-11-27T20:04:28.147Z,32.17
2022-11-27T20:06:58.084Z,27.92
2022-11-27T20:09:25.928Z,28.30
2022-11-27T20:11:55.667Z,32.78
2022-11-27T20:14:23.758Z,36.15
2022-11-27T20:16:52.260Z,33.95
2022-11-27T20:19:20.330Z,44.40
2022-11-27T20:21:49.372Z,45.42
2022-11-27T20:24:19.213Z,45.95
2022-11-27T20:26:48.014Z,49.33
2022-11-27T20:29:16.353Z,49.15
2022-11-27T20:31:45.187Z,44.05
2022-11-27T20:34:20.644Z,41.83
2022-11-27T20:36:50.644Z,50.50
2022-11-27T20:39:21.610Z,45.97
2022-11-27T20:41:52.017Z,51.08
2022-11-27T20:44:22.644Z,51.45
2022-11-27T20:46:51.059Z,44.33
2022-11-27T20:49:18.992Z,51.17
2022-11-27T20:51:50.842Z,49.63
2022-11-27T20:54:24.005Z,53.05
2022-11-27T20:56:52.082Z,52.78
2022-11-27T20:59:20.161Z,52.05
2022-11-27T21:01:48.479Z,54.35
2022-11-27T21:04:26.662Z,55.28
2022-11-27T21:06:55.043Z,57.80
2022-11-27T21:09:22.549Z,52.22
2022-11-27T21:11:50.419Z,53.13
2022-11-27T21:14:20.629Z,55.60
2022-11-27T21:16:50.750Z,50.45
2022-11-27T21:19:21.566Z,50.17
2022-11-27T21:21:51.118Z,54.25
2022-11-27T21:24:19.955Z,53.22
2022-11-27T21:26:48.075Z,49.58
2022-11-27T21:29:16.447Z,49.25
2022-11-27T21:31:47.176Z,50.88
2022-11-27T21:34:15.880Z,49.28
2022-11-27T21:36:45.403Z,52.05
2022-11-27T21:39:20.093Z,52.00
2022-11-27T21:41:50.476Z,51.67
2022-11-27T21:44:18.910Z,55.75
2022-11-27T21:46:46.955Z,50.97
2022-11-27T21:49:15.546Z,48.78
2022-11-27T21:51:43.039Z,49.42
2022-11-27T21:54:12.951Z,54.47
2022-11-27T21:56:40.916Z,55.78
2022-11-27T21:59:10.925Z,48.75
2022-11-27T22:01:38.414Z,49.05
2022-11-27T22:04:06.331Z,49.03
2022-11-27T22:06:38.666Z,47.70
2022-11-27T22:09:11.882Z,44.30
2022-11-27T22:11:42.511Z,43.25
2022-11-27T22:14:10.142Z,42.53
2022-11-27T22:16:44.908Z,42.47
2022-11-27T22:19:14.676Z,44.85
2022-11-27T22:21:42.758Z,45.12
2022-11-27T22:24:16.521Z,43.72
2022-11-27T22:26:47.367Z,44.92
2022-11-27T22:29:17.122Z,46.25
2022-11-27T22:31:44.516Z,42.42
2022-11-27T22:34:12.300Z,45.40
2022-11-27T22:36:40.158Z,39.72
2022-11-27T22:39:09.079Z,37.45
2022-11-27T22:41:38.140Z,40.83
2022-11-27T22:44:14.400Z,37.63
2022-11-27T22:46:42.651Z,39.67
2022-11-27T22:49:15.398Z,40.38
2022-11-27T22:51:43.851Z,42.60
2022-11-27T22:54:14.945Z,38.75
2022-11-27T22:56:46.410Z,37.28
2022-11-27T23:02:02.664Z,39.58
2022-11-27T23:04:30.234Z,41.35
2022-11-27T23:06:58.157Z,44.05
2022-11-27T23:09:26.319Z,40.00
2022-11-27T23:11:53.876Z,39.97
2022-11-27T23:14:21.235Z,40.20
2022-11-27T23:16:49.391Z,40.45
2022-11-27T23:19:16.793Z,45.03
2022-11-27T23:21:44.132Z,40.35
2022-11-27T23:24:15.250Z,38.08
2022-11-27T23:26:43.752Z,38.70
2022-11-27T23:29:11.327Z,38.83
2022-11-27T23:31:40.158Z,37.55
2022-11-27T23:34:10.699Z,40.42
2022-11-27T23:36:38.621Z,39.90
2022-11-27T23:39:07.693Z,38.10
2022-11-27T23:41:35.027Z,41.35
2022-11-27T23:44:02.347Z,40.40
2022-11-27T23:46:30.515Z,37.05
2022-11-27T23:48:59.656Z,43.05
2022-11-27T23:51:30.301Z,39.13
2022-11-27T23:53:58.182Z,39.97
2022-11-27T23:56:27.994Z,35.92
2022-11-27T23:58:55.800Z,40.58
